createdAt,value
2022-11-09T00:04:22.400Z,22.20
2022-11-09T00:14:49.853Z,16.70
2022-11-09T00:25:17.755Z,20.60
2022-11-09T00:35:45.092Z,22.40
2022-11-09T00:46:12.893Z,15.00
2022-11-09T00:56:40.645Z,16.10
2022-11-09T01:07:09.601Z,17.30
2022-11-09T01:17:37.042Z,15.70
2022-11-09T01:28:04.431Z,19.80
2022-11-09T01:38:32.120Z,12.30
2022-11-09T01:49:04.833Z,16.80
2022-11-09T01:59:35.185Z,15.90
2022-11-09T02:10:09.162Z,12.70
2022-11-09T02:20:47.742Z,15.40
2022-11-09T02:31:18.132Z,14.00
2022-11-09T02:41:49.481Z,16.00
2022-11-09T02:52:16.875Z,13.80
2022-11-09T03:02:44.374Z,12.40
2022-11-09T03:13:11.693Z,14.90
2022-11-09T03:23:38.917Z,15.20
2022-11-09T03:34:06.142Z,15.70
2022-11-09T03:44:33.404Z,16.20
2022-11-09T03:55:00.666Z,20.10
2022-11-09T04:05:28.794Z,17.70
2022-11-09T04:15:56.053Z,17.00
2022-11-09T04:26:23.303Z,18.20
2022-11-09T04:36:50.699Z,24.10
2022-11-09T04:47:17.977Z,21.40
2022-11-09T04:57:45.290Z,20.80
2022-11-09T05:08:12.679Z,23.40
2022-11-09T05:18:40.040Z,20.20
2022-11-09T05:29:09.848Z,21.80
2022-11-09T05:39:37.171Z,27.20
2022-11-09T05:50:04.778Z,31.90
2022-11-09T06:00:32.326Z,40.30
2022-11-09T06:11:05.822Z,31.00
2022-11-09T06:21:33.079Z,26.90
2022-11-09T06:32:00.683Z,29.50
2022-11-09T06:42:28.001Z,33.60
2022-11-09T06:52:59.027Z,34.20
2022-11-09T07:03:26.740Z,29.50
2022-11-09T07:13:57.417Z,27.40
2022-11-09T07:24:25.460Z,26.60
2022-11-09T07:35:05.988Z,28.40
2022-11-09T07:45:58.886Z,27.70
2022-11-09T07:56:50.855Z,30.50
2022-11-09T08:07:42.939Z,30.60
2022-11-09T08:18:42.902Z,30.60
2022-11-09T08:29:48.912Z,32.30
2022-11-09T08:40:42.831Z,33.10
2022-11-09T08:51:34.959Z,23.80
2022-11-09T09:02:27.942Z,26.40
2022-11-09T09:13:20.915Z,24.40
2022-11-09T09:24:12.868Z,27.10
2022-11-09T09:35:04.808Z,24.00
2022-11-09T09:46:00.827Z,23.60
2022-11-09T09:56:58.833Z,23.60
2022-11-09T10:07:55.842Z,23.50
2022-11-09T10:19:17.753Z,22.30
2022-11-09T10:30:09.808Z,19.50
2022-11-09T10:41:07.817Z,20.50
2022-11-09T10:51:59.795Z,16.80
2022-11-09T11:03:00.736Z,17.70
2022-11-09T11:13:54.735Z,22.40
2022-11-09T11:24:57.759Z,17.70
2022-11-09T11:35:57.750Z,19.40
2022-11-09T11:47:00.830Z,22.40
2022-11-09T11:58:05.800Z,19.30
2022-11-09T12:09:19.693Z,19.30
2022-11-09T12:20:27.749Z,17.90
2022-11-09T12:31:30.737Z,18.70
2022-11-09T12:42:28.680Z,19.90
2022-11-09T12:53:23.199Z,21.20
2022-11-09T13:04:15.751Z,23.30
2022-11-09T13:15:07.728Z,24.10
2022-11-09T13:26:00.655Z,29.20
2022-11-09T13:36:52.789Z,19.50
2022-11-09T13:47:46.703Z,18.90
2022-11-09T13:58:44.650Z,18.90
2022-11-09T14:09:23.140Z,22.60
2022-11-09T14:20:00.247Z,23.40
2022-11-09T14:30:29.587Z,23.00
2022-11-09T14:40:57.531Z,22.90
2022-11-09T14:51:31.677Z,23.10
2022-11-09T15:02:08.814Z,22.10
2022-11-09T15:12:41.234Z,22.70
2022-11-09T15:23:39.096Z,24.20
2022-11-09T15:34:22.422Z,26.70
2022-11-09T15:44:54.336Z,23.20
2022-11-09T15:55:23.404Z,30.50
2022-11-09T16:05:50.684Z,32.80
2022-11-09T16:16:18.242Z,38.50
2022-11-09T16:26:45.903Z,60.20
2022-11-09T16:37:13.547Z,123.80
2022-11-09T16:47:45.431Z,47.10
2022-11-09T16:58:12.792Z,47.50
2022-11-09T17:08:40.779Z,49.10
2022-11-09T17:19:08.179Z,40.80
2022-11-09T17:29:37.487Z,38.40
2022-11-09T17:40:05.189Z,35.60
2022-11-09T17:50:32.593Z,41.70
2022-11-09T18:01:07.684Z,49.50
2022-11-09T18:11:35.623Z,43.10
2022-11-09T18:22:04.295Z,45.60
2022-11-09T18:32:34.079Z,51.10
2022-11-09T18:43:01.393Z,37.30
2022-11-09T18:53:30.705Z,38.90
2022-11-09T19:04:00.556Z,46.00
2022-11-09T19:14:28.697Z,52.90
2022-11-09T19:24:56.038Z,47.60
2022-11-09T19:35:26.353Z,49.90
2022-11-09T19:45:55.932Z,44.90
2022-11-09T19:56:25.094Z,44.80
2022-11-09T20:06:52.527Z,43.00
2022-11-09T20:17:19.884Z,49.70
2022-11-09T20:27:47.207Z,43.50
2022-11-09T20:38:14.527Z,42.20
2022-11-09T20:48:57.641Z,43.40
2022-11-09T20:59:25.245Z,38.40
2022-11-09T21:09:52.592Z,36.00
2022-11-09T21:20:20.329Z,33.40
2022-11-09T21:30:47.667Z,30.50
2022-11-09T21:41:32.543Z,26.90
2022-11-09T21:52:00.404Z,32.10
2022-11-09T22:02:27.720Z,27.90
2022-11-09T22:13:12.807Z,35.90
2022-11-09T22:23:40.312Z,29.00
2022-11-09T22:34:07.611Z,30.90
2022-11-09T22:44:34.936Z,26.30
2022-11-09T22:55:02.226Z,25.10
2022-11-09T23:05:29.405Z,26.30
2022-11-09T23:16:01.356Z,28.70
2022-11-09T23:26:29.380Z,34.50
2022-11-09T23:36:56.644Z,36.50
2022-11-09T23:47:24.150Z,26.40
2022-11-09T23:57:51.700Z,31.50
